createdAt,value
2023-04-18T00:01:42.092Z,8.27
2023-04-18T00:04:10.201Z,6.10
2023-04-18T00:06:38.188Z,7.60
2023-04-18T00:09:06.191Z,9.07
2023-04-18T00:11:34.527Z,7.40
2023-04-18T00:14:04.312Z,7.20
2023-04-18T00:16:33.050Z,8.30
2023-04-18T00:19:02.283Z,9.37
2023-04-18T00:21:30.096Z,6.40
2023-04-18T00:23:57.900Z,8.20
2023-04-18T00:26:25.742Z,8.07
2023-04-18T00:28:53.542Z,6.40
2023-04-18T00:31:22.703Z,6.33
2023-04-18T00:33:50.575Z,6.53
2023-04-18T00:36:18.379Z,6.53
2023-04-18T00:38:46.193Z,5.83
2023-04-18T00:41:14.027Z,5.63
2023-04-18T00:43:41.850Z,6.17
2023-04-18T00:46:10.828Z,6.70
2023-04-18T00:48:40.462Z,6.63
2023-04-18T00:51:08.536Z,5.70
2023-04-18T00:53:37.068Z,5.83
2023-04-18T00:56:06.078Z,6.70
2023-04-18T00:58:34.087Z,5.37
2023-04-18T01:01:01.849Z,7.90
2023-04-18T01:03:30.042Z,6.67
2023-04-18T01:06:00.995Z,6.60
2023-04-18T01:08:29.017Z,7.80
2023-04-18T01:10:56.769Z,7.03
2023-04-18T01:13:24.635Z,6.90
2023-04-18T01:15:54.307Z,6.27
2023-04-18T01:18:22.527Z,5.90
2023-04-18T01:20:51.790Z,6.40
2023-04-18T01:23:21.291Z,6.30
2023-04-18T01:25:50.511Z,5.30
2023-04-18T01:28:19.326Z,6.50
2023-04-18T01:30:47.123Z,6.27
2023-04-18T01:33:15.212Z,5.47
2023-04-18T01:35:42.996Z,5.63
2023-04-18T01:38:10.823Z,5.40
2023-04-18T01:40:38.619Z,6.60
2023-04-18T01:43:07.741Z,4.87
2023-04-18T01:45:35.513Z,7.33
2023-04-18T01:48:03.349Z,6.23
2023-04-18T01:50:31.141Z,6.13
2023-04-18T01:52:58.925Z,6.40
2023-04-18T01:55:26.679Z,6.23
2023-04-18T01:57:54.480Z,6.20
2023-04-18T02:00:24.172Z,9.27
2023-04-18T02:02:52.077Z,5.77
2023-04-18T02:05:20.112Z,8.40
2023-04-18T02:07:50.037Z,6.13
2023-04-18T02:10:18.036Z,7.40
2023-04-18T02:12:45.804Z,6.80
2023-04-18T02:15:13.738Z,8.50
2023-04-18T02:17:42.930Z,7.33
2023-04-18T02:20:11.705Z,6.53
2023-04-18T02:22:39.566Z,6.40
2023-04-18T02:25:08.091Z,8.70
2023-04-18T02:27:35.889Z,7.60
2023-04-18T02:30:04.125Z,7.47
2023-04-18T02:32:31.983Z,9.27
2023-04-18T02:35:01.134Z,7.37
2023-04-18T02:37:28.967Z,6.87
2023-04-18T02:39:56.813Z,6.97
2023-04-18T02:42:24.676Z,7.97
2023-04-18T02:44:52.464Z,10.00
2023-04-18T02:47:20.220Z,6.77
2023-04-18T02:49:48.024Z,8.80
2023-04-18T02:52:17.161Z,6.30
2023-04-18T02:54:45.122Z,7.73
2023-04-18T02:57:12.903Z,7.67
2023-04-18T02:59:40.715Z,8.10
2023-04-18T03:02:08.572Z,8.27
2023-04-18T03:04:36.657Z,7.80
2023-04-18T03:07:04.508Z,8.33
2023-04-18T03:09:33.626Z,8.43
2023-04-18T03:12:02.126Z,10.30
2023-04-18T03:14:29.924Z,8.00
2023-04-18T03:16:57.785Z,8.67
2023-04-18T03:19:25.626Z,8.57
2023-04-18T03:21:54.277Z,9.67
2023-04-18T03:24:22.058Z,7.63
2023-04-18T03:26:51.269Z,9.27
2023-04-18T03:29:19.059Z,8.13
2023-04-18T03:31:46.921Z,10.70
2023-04-18T03:34:14.902Z,9.00
2023-04-18T03:36:42.893Z,9.73
2023-04-18T03:39:10.855Z,9.07
2023-04-18T03:41:38.638Z,9.17
2023-04-18T03:44:08.869Z,8.00
2023-04-18T03:46:36.734Z,10.17
2023-04-18T03:49:04.611Z,9.20
2023-04-18T03:51:34.211Z,8.67
2023-04-18T03:54:01.970Z,10.57
2023-04-18T03:56:29.747Z,8.17
2023-04-18T03:58:58.658Z,8.30
2023-04-18T04:01:27.948Z,11.60
2023-04-18T04:03:55.892Z,9.77
2023-04-18T04:06:23.968Z,9.27
2023-04-18T04:08:51.759Z,10.57
2023-04-18T04:11:19.571Z,9.20
2023-04-18T04:13:47.329Z,12.80
2023-04-18T04:16:15.283Z,10.60
2023-04-18T04:18:44.830Z,16.63
2023-04-18T04:21:12.673Z,11.23
2023-04-18T04:23:41.895Z,11.53
2023-04-18T04:26:09.876Z,11.30
2023-04-18T04:28:39.902Z,12.60
2023-04-18T04:31:08.436Z,13.70
2023-04-18T04:33:38.774Z,12.13
2023-04-18T04:36:09.109Z,12.63
2023-04-18T04:38:38.374Z,16.53
2023-04-18T04:41:07.851Z,15.43
2023-04-18T04:43:35.944Z,15.17
2023-04-18T04:46:04.805Z,18.03
2023-04-18T04:48:32.654Z,16.60
2023-04-18T04:51:02.016Z,14.80
2023-04-18T04:53:31.470Z,12.90
2023-04-18T04:55:59.589Z,19.10
2023-04-18T04:58:27.770Z,13.57
2023-04-18T05:00:55.715Z,13.30
2023-04-18T05:03:23.820Z,15.30
2023-04-18T05:05:51.751Z,13.60
2023-04-18T05:08:19.733Z,13.47
2023-04-18T05:10:49.998Z,14.47
2023-04-18T05:13:18.002Z,14.47
2023-04-18T05:15:45.824Z,14.10
2023-04-18T05:18:14.309Z,14.37
2023-04-18T05:20:42.135Z,14.90
2023-04-18T05:23:10.017Z,14.33
2023-04-18T05:25:37.911Z,16.20
2023-04-18T05:28:08.328Z,16.73
2023-04-18T05:30:36.414Z,15.90
2023-04-18T05:33:04.490Z,18.87
2023-04-18T05:35:32.826Z,16.30
2023-04-18T05:38:00.825Z,17.03
2023-04-18T05:40:28.613Z,18.60
2023-04-18T05:42:56.459Z,17.23
2023-04-18T05:45:25.588Z,16.80
2023-04-18T05:47:54.448Z,18.07
2023-04-18T05:50:23.067Z,18.53
2023-04-18T05:52:50.972Z,18.70
2023-04-18T05:55:19.113Z,19.30
2023-04-18T05:57:46.905Z,18.13
2023-04-18T06:00:17.110Z,21.63
2023-04-18T06:02:46.499Z,18.60
2023-04-18T06:05:14.702Z,18.40
2023-04-18T06:07:42.700Z,19.77
2023-04-18T06:10:13.293Z,20.60
2023-04-18T06:12:41.252Z,17.20
2023-04-18T06:15:10.495Z,17.03
2023-04-18T06:17:38.391Z,17.93
2023-04-18T06:20:10.931Z,19.27
2023-04-18T06:22:38.721Z,20.80
2023-04-18T06:25:08.705Z,19.20
2023-04-18T06:27:36.502Z,18.40
2023-04-18T06:30:04.997Z,18.97
2023-04-18T06:32:32.833Z,18.27
2023-04-18T06:35:00.724Z,19.70
2023-04-18T06:37:30.125Z,20.13
2023-04-18T06:39:58.553Z,18.57
2023-04-18T06:42:26.593Z,18.80
2023-04-18T06:44:54.381Z,20.77
2023-04-18T06:47:22.254Z,19.03
2023-04-18T06:49:50.062Z,20.33
2023-04-18T06:52:17.930Z,19.07
2023-04-18T06:54:47.050Z,19.27
2023-04-18T06:57:14.910Z,21.37
2023-04-18T06:59:42.701Z,20.17
2023-04-18T07:02:10.554Z,21.87
2023-04-18T07:04:38.454Z,24.20
2023-04-18T07:07:06.281Z,20.80
2023-04-18T07:09:34.278Z,17.87
2023-04-18T07:12:03.406Z,24.33
2023-04-18T07:14:32.847Z,22.43
2023-04-18T07:17:02.275Z,21.10
2023-04-18T07:19:30.105Z,20.50
2023-04-18T07:21:58.046Z,22.40
2023-04-18T07:24:25.829Z,18.67
2023-04-18T07:26:55.200Z,21.60
2023-04-18T07:29:24.538Z,19.93
2023-04-18T07:31:52.525Z,22.70
2023-04-18T07:34:21.918Z,19.50
2023-04-18T07:36:49.857Z,22.40
2023-04-18T07:39:17.718Z,21.67
2023-04-18T07:41:45.580Z,19.33
2023-04-18T07:44:13.612Z,20.57
2023-04-18T07:46:43.077Z,21.50
2023-04-18T07:49:10.916Z,20.73
2023-04-18T07:51:38.845Z,23.57
2023-04-18T07:54:06.745Z,21.10
2023-04-18T07:56:34.542Z,24.33
2023-04-18T07:59:02.624Z,22.90
2023-04-18T08:01:30.937Z,26.80
2023-04-18T08:04:02.075Z,18.93
2023-04-18T08:06:30.257Z,21.07
2023-04-18T08:08:58.987Z,23.00
2023-04-18T08:11:26.905Z,22.47
2023-04-18T08:13:54.730Z,21.70
2023-04-18T08:16:22.671Z,22.47
2023-04-18T08:18:50.500Z,22.13
2023-04-18T08:21:19.845Z,22.10
2023-04-18T08:23:48.017Z,21.93
2023-04-18T08:26:15.813Z,18.67
2023-04-18T08:28:46.279Z,18.60
2023-04-18T08:31:15.171Z,20.27
2023-04-18T08:33:43.300Z,23.33
2023-04-18T08:36:12.042Z,21.07
2023-04-18T08:38:41.266Z,20.30
2023-04-18T08:41:09.657Z,20.70
2023-04-18T08:43:38.885Z,20.33
2023-04-18T08:46:07.877Z,19.73
2023-04-18T08:48:36.654Z,19.73
2023-04-18T08:51:04.900Z,19.23
2023-04-18T08:53:35.223Z,21.53
2023-04-18T08:56:05.296Z,19.47
2023-04-18T08:58:34.729Z,18.70
2023-04-18T09:01:02.641Z,20.87
2023-04-18T09:03:41.636Z,17.30
2023-04-18T09:06:12.387Z,21.60
2023-04-18T09:08:41.841Z,22.67
2023-04-18T09:11:25.861Z,17.27
2023-04-18T09:13:55.985Z,20.43
2023-04-18T09:16:24.725Z,20.90
2023-04-18T09:19:13.253Z,16.63
2023-04-18T09:21:44.361Z,21.07
2023-04-18T09:24:23.537Z,17.73
2023-04-18T09:26:55.766Z,17.70
2023-04-18T09:29:24.329Z,17.07
2023-04-18T09:32:02.930Z,17.40
2023-04-18T09:34:33.915Z,18.90
2023-04-18T09:37:09.449Z,23.80
2023-04-18T09:39:38.648Z,17.40
2023-04-18T09:42:10.357Z,20.30
2023-04-18T09:44:38.571Z,19.17
2023-04-18T09:47:08.040Z,21.20
2023-04-18T09:49:35.947Z,18.37
2023-04-18T09:52:06.338Z,19.47
2023-04-18T09:54:38.639Z,22.20
2023-04-18T09:57:11.883Z,24.10
2023-04-18T09:59:47.577Z,11.70
2023-04-18T10:02:20.845Z,13.67
2023-04-18T10:04:50.267Z,12.87
2023-04-18T10:07:18.977Z,17.23
2023-04-18T10:09:47.932Z,10.67
2023-04-18T10:12:18.466Z,11.60
2023-04-18T10:14:46.645Z,13.83
2023-04-18T10:17:16.050Z,16.00
2023-04-18T10:19:46.167Z,17.17
2023-04-18T10:22:14.232Z,17.97
2023-04-18T10:24:53.958Z,16.90
2023-04-18T10:30:15.902Z,18.87
2023-04-18T10:32:43.814Z,18.20
2023-04-18T10:35:12.245Z,21.03
2023-04-18T10:37:50.669Z,18.80
2023-04-18T10:40:32.483Z,18.40
2023-04-18T10:43:00.347Z,22.77
2023-04-18T10:45:31.264Z,18.97
2023-04-18T10:48:25.196Z,21.07
2023-04-18T10:51:15.816Z,19.27
2023-04-18T10:53:52.703Z,20.50
2023-04-18T10:56:20.745Z,19.03
2023-04-18T10:58:51.922Z,18.27
2023-04-18T11:01:28.520Z,20.63
2023-04-18T11:03:58.285Z,33.70
2023-04-18T11:06:27.196Z,21.90
2023-04-18T11:09:10.801Z,18.40
2023-04-18T11:11:38.731Z,19.70
2023-04-18T11:14:06.592Z,21.13
2023-04-18T11:16:36.296Z,20.40
2023-04-18T11:19:20.070Z,18.43
2023-04-18T11:21:47.991Z,22.80
2023-04-18T11:24:23.902Z,22.80
2023-04-18T11:26:55.633Z,20.37
2023-04-18T11:29:23.827Z,18.17
2023-04-18T11:31:57.564Z,22.50
2023-04-18T11:34:30.363Z,21.50
2023-04-18T11:36:58.473Z,21.03
2023-04-18T11:39:26.356Z,20.33
2023-04-18T11:41:56.388Z,20.30
2023-04-18T11:44:25.467Z,20.10
2023-04-18T11:46:54.841Z,18.40
2023-04-18T11:49:27.089Z,17.20
2023-04-18T11:51:54.956Z,17.27
2023-04-18T11:54:42.136Z,17.77
2023-04-18T11:57:21.548Z,16.60
2023-04-18T11:59:51.143Z,21.00
2023-04-18T12:02:21.147Z,21.20
2023-04-18T12:04:54.163Z,16.03
2023-04-18T12:07:32.872Z,17.33
2023-04-18T12:10:00.790Z,17.23
2023-04-18T12:12:28.790Z,22.83
2023-04-18T12:15:04.461Z,20.33
2023-04-18T12:17:33.925Z,19.03
2023-04-18T12:20:07.390Z,17.17
2023-04-18T12:22:46.279Z,20.13
2023-04-18T12:25:23.387Z,18.87
2023-04-18T12:27:58.045Z,19.17
2023-04-18T12:30:27.767Z,19.50
2023-04-18T12:33:00.346Z,19.13
2023-04-18T12:35:29.036Z,20.73
2023-04-18T12:37:58.160Z,18.10
2023-04-18T12:40:26.757Z,17.90
2023-04-18T12:42:55.427Z,18.50
2023-04-18T12:45:24.201Z,18.10
2023-04-18T12:47:53.308Z,19.60
2023-04-18T12:50:23.972Z,15.33
2023-04-18T12:52:53.838Z,17.70
2023-04-18T12:55:22.571Z,17.30
2023-04-18T12:57:54.062Z,19.17
2023-04-18T13:00:23.400Z,19.63
2023-04-18T13:02:52.420Z,18.27
2023-04-18T13:05:25.772Z,19.20
2023-04-18T13:08:08.533Z,18.90
2023-04-18T13:10:42.518Z,20.20
2023-04-18T13:13:10.375Z,19.87
2023-04-18T13:15:38.404Z,23.17
2023-04-18T13:18:06.709Z,18.50
2023-04-18T13:20:36.452Z,19.60
2023-04-18T13:23:04.676Z,18.13
2023-04-18T13:25:32.660Z,16.77
2023-04-18T13:28:00.918Z,21.33
2023-04-18T13:30:28.998Z,20.47
2023-04-18T13:32:56.913Z,19.47
2023-04-18T13:35:24.850Z,15.50
2023-04-18T13:37:54.037Z,16.43
2023-04-18T13:40:21.911Z,16.97
2023-04-18T13:42:49.693Z,17.53
2023-04-18T13:45:17.450Z,16.20
2023-04-18T13:47:45.344Z,17.40
2023-04-18T13:50:13.213Z,19.27
2023-04-18T13:52:41.042Z,18.00
2023-04-18T13:55:12.376Z,17.10
2023-04-18T13:57:41.113Z,16.80
2023-04-18T14:00:13.613Z,17.20
2023-04-18T14:02:42.014Z,15.40
2023-04-18T14:05:10.804Z,17.00
2023-04-18T14:07:39.223Z,16.63
2023-04-18T14:10:08.047Z,16.03
2023-04-18T14:12:37.518Z,16.83
2023-04-18T14:15:06.196Z,18.10
2023-04-18T14:17:34.579Z,17.97
2023-04-18T14:20:02.998Z,16.53
2023-04-18T14:22:31.066Z,17.40
2023-04-18T14:24:59.057Z,14.13
2023-04-18T14:27:27.543Z,16.70
2023-04-18T14:29:56.674Z,20.87
2023-04-18T14:32:24.628Z,21.13
2023-04-18T14:34:52.508Z,16.00
2023-04-18T14:37:20.315Z,16.00
2023-04-18T14:39:48.499Z,19.20
2023-04-18T14:42:17.074Z,19.93
2023-04-18T14:44:44.872Z,17.47
2023-04-18T14:47:14.053Z,17.53
2023-04-18T14:49:41.885Z,17.13
2023-04-18T14:52:09.674Z,17.07
2023-04-18T14:54:37.553Z,18.80
2023-04-18T14:57:08.060Z,15.93
2023-04-18T14:59:35.849Z,17.77
2023-04-18T15:02:03.759Z,17.63
2023-04-18T15:04:33.021Z,19.97
2023-04-18T15:07:01.810Z,17.13
2023-04-18T15:09:30.292Z,16.50
2023-04-18T15:11:58.242Z,15.43
2023-04-18T15:14:26.114Z,15.63
2023-04-18T15:16:53.986Z,14.80
2023-04-18T15:19:21.894Z,15.13
2023-04-18T15:21:51.110Z,17.83
2023-04-18T15:24:19.286Z,17.17
2023-04-18T15:26:47.333Z,21.90
2023-04-18T15:29:15.296Z,16.80
2023-04-18T15:31:43.135Z,17.00
2023-04-18T15:34:11.634Z,16.37
2023-04-18T15:36:39.636Z,16.57
2023-04-18T15:39:09.082Z,16.03
2023-04-18T15:41:37.804Z,16.87
2023-04-18T15:44:07.878Z,16.37
2023-04-18T15:46:37.826Z,17.20
2023-04-18T15:49:05.635Z,17.03
2023-04-18T15:51:33.427Z,16.60
2023-04-18T15:54:01.279Z,19.10
2023-04-18T15:56:33.036Z,16.60
2023-04-18T15:59:03.033Z,15.57
2023-04-18T16:01:30.848Z,20.83
2023-04-18T16:03:58.854Z,17.10
2023-04-18T16:06:26.745Z,15.33
2023-04-18T16:08:54.510Z,13.97
2023-04-18T16:11:26.002Z,13.50
2023-04-18T16:13:55.962Z,16.60
2023-04-18T16:16:23.894Z,14.17
2023-04-18T16:18:51.701Z,13.67
2023-04-18T16:21:19.501Z,18.20
2023-04-18T16:23:47.245Z,15.97
2023-04-18T16:26:14.990Z,15.17
2023-04-18T16:28:42.744Z,15.93
2023-04-18T16:31:11.881Z,14.00
2023-04-18T16:33:39.696Z,14.30
2023-04-18T16:36:07.648Z,13.90
2023-04-18T16:38:35.599Z,11.60
2023-04-18T16:41:03.669Z,12.87
2023-04-18T16:43:36.222Z,12.40
2023-04-18T16:46:04.646Z,8.77
2023-04-18T16:48:33.802Z,6.10
2023-04-18T16:51:01.586Z,7.20
2023-04-18T16:53:29.383Z,9.70
2023-04-18T16:55:57.150Z,7.87
2023-04-18T16:58:24.905Z,7.10
2023-04-18T17:00:53.181Z,6.77
2023-04-18T17:03:21.123Z,6.63
2023-04-18T17:05:50.444Z,8.17
2023-04-18T17:08:18.256Z,6.93
2023-04-18T17:10:46.009Z,7.20
2023-04-18T17:13:13.818Z,6.30
2023-04-18T17:15:42.857Z,6.40
2023-04-18T17:18:10.668Z,5.30
2023-04-18T17:20:38.533Z,7.17
2023-04-18T17:23:07.650Z,7.23
2023-04-18T17:25:35.408Z,8.43
2023-04-18T17:28:03.363Z,6.47
2023-04-18T17:30:31.331Z,6.37
2023-04-18T17:32:59.155Z,5.43
2023-04-18T17:35:26.926Z,5.87
2023-04-18T17:37:54.803Z,5.20
2023-04-18T17:40:24.190Z,5.20
2023-04-18T17:42:51.965Z,6.73
2023-04-18T17:45:20.420Z,5.23
2023-04-18T17:47:49.866Z,5.57
2023-04-18T17:50:17.835Z,5.13
2023-04-18T17:52:46.396Z,5.07
2023-04-18T17:55:14.528Z,4.90
2023-04-18T17:57:43.613Z,5.40
2023-04-18T18:00:13.698Z,4.30
2023-04-18T18:02:42.750Z,5.40
2023-04-18T18:05:13.421Z,5.97
2023-04-18T18:07:43.203Z,5.20
2023-04-18T18:10:11.830Z,7.17
2023-04-18T18:12:40.633Z,4.77
2023-04-18T18:15:10.924Z,4.80
2023-04-18T18:17:38.821Z,4.63
2023-04-18T18:20:09.749Z,7.33
2023-04-18T18:22:37.602Z,6.37
2023-04-18T18:25:06.239Z,5.57
2023-04-18T18:27:34.120Z,5.80
2023-04-18T18:30:01.889Z,7.40
2023-04-18T18:32:31.152Z,5.50
2023-04-18T18:34:59.050Z,7.53
2023-04-18T18:37:27.195Z,6.03
2023-04-18T18:39:55.331Z,4.80
2023-04-18T18:42:23.296Z,5.67
2023-04-18T18:44:51.193Z,5.60
2023-04-18T18:47:19.630Z,7.13
2023-04-18T18:49:49.478Z,5.20
2023-04-18T18:52:17.255Z,5.47
2023-04-18T18:54:45.083Z,5.93
2023-04-18T18:57:12.893Z,5.40
2023-04-18T18:59:41.434Z,9.20
2023-04-18T19:02:09.318Z,9.30
2023-04-18T19:04:37.375Z,7.03
2023-04-18T19:07:07.221Z,8.60
2023-04-18T19:09:36.773Z,6.70
2023-04-18T19:12:05.070Z,8.13
2023-04-18T19:14:32.989Z,7.50
2023-04-18T19:17:00.772Z,7.93
2023-04-18T19:19:28.597Z,7.30
2023-04-18T19:21:57.774Z,7.47
2023-04-18T19:24:27.123Z,6.30
2023-04-18T19:26:54.907Z,8.60
2023-04-18T19:29:23.499Z,6.87
2023-04-18T19:31:51.491Z,5.30
2023-04-18T19:34:19.743Z,7.70
2023-04-18T19:36:47.578Z,7.87
2023-04-18T19:39:16.345Z,5.50
2023-04-18T19:41:46.015Z,6.80
2023-04-18T19:44:13.775Z,6.47
2023-04-18T19:46:41.557Z,6.13
2023-04-18T19:49:09.316Z,6.83
2023-04-18T19:51:37.108Z,5.70
2023-04-18T19:54:05.625Z,6.53
2023-04-18T19:56:33.437Z,6.00
2023-04-18T19:59:04.713Z,16.73
2023-04-18T20:01:32.668Z,17.10
2023-04-18T20:04:01.169Z,21.80
2023-04-18T20:06:29.280Z,22.10
2023-04-18T20:08:57.205Z,22.83
2023-04-18T20:11:25.816Z,26.93
2023-04-18T20:13:55.575Z,23.30
2023-04-18T20:16:24.713Z,15.17
2023-04-18T20:18:54.787Z,12.70
2023-04-18T20:21:22.953Z,13.57
2023-04-18T20:23:51.066Z,13.13
2023-04-18T20:26:19.296Z,15.73
2023-04-18T20:28:47.173Z,12.50
2023-04-18T20:31:14.995Z,10.33
2023-04-18T20:33:44.119Z,11.77
2023-04-18T20:36:11.885Z,10.33
2023-04-18T20:38:40.119Z,8.80
2023-04-18T20:41:10.670Z,8.07
2023-04-18T20:43:38.606Z,8.67
2023-04-18T20:46:06.869Z,8.43
2023-04-18T20:48:34.716Z,8.37
2023-04-18T20:51:03.837Z,8.90
2023-04-18T20:53:31.711Z,8.80
2023-04-18T20:56:01.452Z,8.17
2023-04-18T20:58:29.229Z,8.07
2023-04-18T21:00:56.995Z,9.93
2023-04-18T21:03:24.919Z,7.03
2023-04-18T21:05:53.420Z,8.00
2023-04-18T21:08:22.532Z,8.07
2023-04-18T21:10:50.328Z,8.10
2023-04-18T21:13:18.088Z,11.63
2023-04-18T21:15:46.021Z,6.93
2023-04-18T21:18:13.784Z,8.03
2023-04-18T21:20:41.526Z,7.20
2023-04-18T21:23:09.312Z,8.30
2023-04-18T21:25:38.855Z,8.63
2023-04-18T21:28:07.815Z,8.10
2023-04-18T21:30:35.609Z,10.50
2023-04-18T21:33:03.681Z,10.27
2023-04-18T21:35:31.475Z,8.07
2023-04-18T21:37:59.300Z,8.00
2023-04-18T21:40:30.567Z,9.10
2023-04-18T21:42:59.734Z,8.40
2023-04-18T21:45:27.725Z,9.23
2023-04-18T21:47:55.694Z,8.60
2023-04-18T21:50:23.682Z,8.63
2023-04-18T21:52:51.454Z,9.50
2023-04-18T21:55:19.408Z,8.20
2023-04-18T21:57:47.212Z,7.53
2023-04-18T22:00:17.232Z,8.10
2023-04-18T22:02:45.174Z,7.70
2023-04-18T22:05:13.906Z,8.27
2023-04-18T22:07:54.482Z,7.60
2023-04-18T22:10:25.762Z,7.80
2023-04-18T22:12:54.401Z,6.20
2023-04-18T22:15:23.685Z,8.53
2023-04-18T22:17:51.468Z,8.03
2023-04-18T22:20:19.611Z,7.10
2023-04-18T22:22:47.414Z,9.90
2023-04-18T22:25:15.234Z,7.90
2023-04-18T22:27:43.528Z,8.83
2023-04-18T22:30:12.359Z,10.33
2023-04-18T22:32:41.675Z,9.80
2023-04-18T22:35:10.408Z,7.23
2023-04-18T22:37:38.198Z,6.73
2023-04-18T22:40:07.110Z,6.60
2023-04-18T22:42:35.632Z,7.73
2023-04-18T22:45:05.974Z,7.73
2023-04-18T22:47:34.016Z,6.83
2023-04-18T22:50:03.234Z,6.80
2023-04-18T22:52:31.128Z,13.33
2023-04-18T22:54:58.972Z,6.93
2023-04-18T22:57:26.792Z,6.67
2023-04-18T22:59:54.548Z,7.47
2023-04-18T23:02:22.518Z,5.37
2023-04-18T23:04:50.612Z,6.30
2023-04-18T23:07:19.961Z,6.40
2023-04-18T23:09:47.767Z,5.60
2023-04-18T23:12:15.658Z,5.57
2023-04-18T23:14:43.406Z,6.87
2023-04-18T23:17:11.161Z,6.30
2023-04-18T23:19:39.435Z,6.17
2023-04-18T23:22:07.198Z,5.20
2023-04-18T23:24:36.312Z,6.97
2023-04-18T23:27:04.096Z,6.27
2023-04-18T23:29:31.867Z,6.40
2023-04-18T23:31:59.628Z,5.70
2023-04-18T23:34:27.392Z,7.53
2023-04-18T23:36:55.195Z,5.10
2023-04-18T23:39:22.977Z,6.00
2023-04-18T23:41:52.100Z,7.20
2023-04-18T23:44:19.848Z,8.00
2023-04-18T23:46:48.137Z,4.73
2023-04-18T23:49:16.186Z,6.03
2023-04-18T23:51:43.966Z,6.60
2023-04-18T23:54:11.932Z,5.87
2023-04-18T23:56:39.746Z,8.27
2023-04-18T23:59:08.848Z,7.60
